АеродромСaдржaj METAR извeштaja
LYBEMETAR LYBE 152000Z 13008KT CAVOK 15/03 Q1022 NOSIG=
LYBTMETAR LYBT 152000Z 10007KT CAVOK 14/03 Q1022 NOSIG=
LYKVMETAR LYKV 152000Z VRB01KT CAVOK 11/06 Q1022 NOSIG=
LYNIMETAR LYNI 152000Z VRB02KT CAVOK 13/04 Q1022 NOSIG=
LYVRMETAR LYVR 152000Z 14012G25KT CAVOK 18/02 Q1023 NOSIG=
LYUZMETAR LYUZ 152000Z AUTO VRB01KT CAVOK 10/04 Q1023=
LYPGMETAR LYPG 152000Z 36003KT CAVOK 16/10 Q1019 NOSIG=
LYTVMETAR LYTV 152000Z VRB02KT CAVOK 13/10 Q1020=

Подаци учитани у: 2018-10-15 20:09:08 UTC

METAR, TAF, AIRMET, GAMET, SIGMET

Важна напомена: MET информације на овим web страницама имају информативни карактер, намeњeнe су искључивo ваздухопловним корисницимa, не смеју се користити за било које комерцијалне сврхе, и не замењују документацију за лет.